Time;durP1;ratioP1;P1;durP2;ratioP2;P2;SDS_P1;SDS_P2;PMS_P1;PMS_P2;Temp;Humidity;BMP_temperature;BMP_pressure;BME280_temperature;BME280_humidity;BME280_pressure;Samples;Min_cycle;Max_cycle;Signal;HPM_P1;HPM_P2
2021/06/14 00:01:57;;;;;;;24.70;7.70;;;;;;;20.01;49.52;99538.03;5093382;28;20050;-77
2021/06/14 00:04:23;;;;;;;24.30;8.15;;;;;;;20.07;49.31;99535.44;5060329;28;20083;-75
2021/06/14 00:06:49;;;;;;;20.08;7.28;;;;;;;20.07;48.84;99530.00;5043473;28;20130;-76
2021/06/14 00:09:19;;;;;;;24.77;7.57;;;;;;;20.19;48.85;99538.59;5043414;28;20036;-76
2021/06/14 00:11:46;;;;;;;23.30;8.23;;;;;;;20.24;49.86;99532.63;5060369;28;20108;-75
2021/06/14 00:14:11;;;;;;;15.68;6.95;;;;;;;20.24;48.80;99524.50;5093248;28;20518;-75
2021/06/14 00:16:38;;;;;;;27.63;6.13;;;;;;;20.32;48.23;99540.72;5059782;28;20078;-75
2021/06/14 00:19:04;;;;;;;21.02;5.70;;;;;;;20.35;48.81;99543.09;5043155;28;20047;-75
2021/06/14 00:21:30;;;;;;;15.93;5.57;;;;;;;20.40;48.84;99551.50;5059558;28;20044;-76
2021/06/14 00:23:56;;;;;;;14.77;5.53;;;;;;;20.46;48.09;99542.66;5059472;28;20065;-75
2021/06/14 00:26:22;;;;;;;19.98;4.65;;;;;;;20.56;47.05;99550.56;5059012;28;20040;-75
2021/06/14 00:28:59;;;;;;;13.88;4.93;;;;;;;20.66;46.53;99545.75;5077497;28;20044;-75
2021/06/14 00:31:25;;;;;;;16.15;4.63;;;;;;;20.72;45.41;99546.88;5042833;28;20047;-75
2021/06/14 00:33:51;;;;;;;12.15;3.78;;;;;;;20.81;44.58;99549.34;5059095;28;20558;-75
2021/06/14 00:36:17;;;;;;;12.05;3.22;;;;;;;20.87;43.99;99536.88;5059450;28;20048;-75
2021/06/14 00:38:43;;;;;;;16.50;3.65;;;;;;;20.99;43.77;99537.31;5059131;28;20567;-76
2021/06/14 00:41:11;;;;;;;13.88;3.72;;;;;;;21.10;43.16;99548.56;5059350;28;20044;-75
2021/06/14 00:43:38;;;;;;;6.07;2.97;;;;;;;21.16;42.35;99546.13;5059579;28;20043;-76
2021/06/14 00:46:04;;;;;;;10.40;3.30;;;;;;;21.19;42.04;99546.59;5042982;28;20402;-76
2021/06/14 00:48:31;;;;;;;9.68;3.03;;;;;;;21.20;40.76;99531.13;5059140;28;20036;-75
2021/06/14 00:51:01;;;;;;;6.65;2.50;;;;;;;21.34;39.82;99541.19;5059080;28;20039;-76
2021/06/14 00:53:38;;;;;;;8.25;2.40;;;;;;;21.40;39.96;99548.63;5058802;28;20047;-75
2021/06/14 00:56:13;;;;;;;4.18;2.42;;;;;;;21.43;39.70;99547.38;5043691;28;20051;-75
2021/06/14 00:58:41;;;;;;;9.05;2.63;;;;;;;21.35;39.02;99534.72;5042964;28;20048;-74
2021/06/14 01:01:08;;;;;;;9.35;2.28;;;;;;;21.50;39.26;99532.00;5042256;28;20048;-75
2021/06/14 01:03:35;;;;;;;7.70;2.30;;;;;;;21.58;39.00;99540.06;5042296;28;20044;-75
2021/06/14 01:06:04;;;;;;;7.95;2.15;;;;;;;21.57;38.06;99544.66;5075390;28;20416;-75
2021/06/14 01:08:32;;;;;;;6.07;2.25;;;;;;;21.55;37.83;99538.56;5075670;28;20127;-75
2021/06/14 01:11:00;;;;;;;4.82;1.90;;;;;;;21.73;37.75;99548.19;5058621;28;20050;-75
2021/06/14 01:13:36;;;;;;;6.20;2.17;;;;;;;21.78;37.62;99557.50;5058758;28;20048;-77
2021/06/14 01:16:09;;;;;;;5.80;1.90;;;;;;;21.84;37.13;99550.44;5075607;28;20395;-75
2021/06/14 01:18:41;;;;;;;5.13;2.22;;;;;;;21.99;37.27;99555.84;5075153;28;20502;-75
2021/06/14 01:21:20;;;;;;;4.80;1.63;;;;;;;22.10;37.39;99554.50;5075873;28;20036;-75
2021/06/14 01:24:05;;;;;;;6.18;2.10;;;;;;;22.18;35.73;99559.88;5074764;28;20044;-76
2021/06/14 01:26:43;;;;;;;6.68;1.83;;;;;;;22.06;35.86;99549.44;5074693;28;20047;-74
2021/06/14 01:29:10;;;;;;;6.90;1.85;;;;;;;22.11;35.77;99561.63;5042819;28;20046;-74
2021/06/14 01:31:36;;;;;;;5.18;1.63;;;;;;;22.30;35.41;99558.31;5058756;28;20044;-75
2021/06/14 01:34:04;;;;;;;3.88;2.20;;;;;;;22.47;35.29;99562.50;5058726;28;20071;-74
2021/06/14 01:36:32;;;;;;;6.90;1.80;;;;;;;22.52;34.70;99546.38;5058693;28;20130;-75
2021/06/14 01:39:00;;;;;;;5.63;1.67;;;;;;;22.67;34.87;99562.66;5074660;28;20044;-76
2021/06/14 01:41:27;;;;;;;4.47;1.90;;;;;;;22.70;34.84;99556.84;5075263;28;20047;-76
2021/06/14 01:44:04;;;;;;;3.95;1.80;;;;;;;22.81;35.36;99552.72;5076542;28;20051;-74
2021/06/14 01:46:34;;;;;;;4.55;2.00;;;;;;;22.95;34.80;99560.03;5058480;28;20075;-74
2021/06/14 01:49:04;;;;;;;3.13;1.90;;;;;;;22.97;34.64;99543.44;5058429;28;20062;-75
2021/06/14 01:51:31;;;;;;;7.65;2.00;;;;;;;23.02;34.57;99550.00;5041409;28;20044;-76
2021/06/14 01:54:03;;;;;;;5.45;2.05;;;;;;;23.18;34.68;99553.47;5041703;28;20044;-76
2021/06/14 01:56:34;;;;;;;2.88;1.90;;;;;;;23.14;35.00;99544.84;5060104;28;20048;-76
2021/06/14 01:59:01;;;;;;;3.88;1.60;;;;;;;23.26;34.65;99551.44;5074791;28;20089;-74
2021/06/14 02:01:30;;;;;;;6.93;1.63;;;;;;;23.31;34.74;99559.00;5059210;28;20046;-74
2021/06/14 02:03:59;;;;;;;6.72;1.80;;;;;;;23.34;34.45;99555.88;5042393;28;20047;-75
2021/06/14 02:06:43;;;;;;;5.20;1.92;;;;;;;23.52;34.47;99556.22;5059992;28;20408;-75
2021/06/14 02:09:20;;;;;;;5.18;1.98;;;;;;;23.37;34.17;99552.75;5059353;28;20105;-74
2021/06/14 02:11:52;;;;;;;7.25;2.13;;;;;;;23.35;34.59;99554.00;5042083;28;20067;-75
2021/06/14 02:14:23;;;;;;;6.15;1.92;;;;;;;23.36;34.05;99555.69;5058179;28;20039;-75
2021/06/14 02:16:50;;;;;;;4.10;1.75;;;;;;;23.36;34.06;99562.00;5059066;28;20048;-76
2021/06/14 02:19:17;;;;;;;6.10;2.03;;;;;;;23.36;33.89;99553.81;5058009;28;20055;-75
2021/06/14 02:21:44;;;;;;;7.10;2.08;;;;;;;23.66;33.88;99567.22;5058439;28;20084;-74
2021/06/14 02:24:11;;;;;;;8.27;2.20;;;;;;;23.73;34.33;99568.97;5057993;28;20032;-74
2021/06/14 02:26:37;;;;;;;7.18;2.25;;;;;;;23.82;34.16;99577.81;5074633;28;20403;-74
2021/06/14 02:29:04;;;;;;;4.70;2.00;;;;;;;24.02;33.86;99563.41;5057869;28;20555;-74
2021/06/14 02:31:32;;;;;;;4.32;1.92;;;;;;;24.05;34.06;99566.56;5058153;28;20509;-75
2021/06/14 02:33:59;;;;;;;10.25;2.17;;;;;;;24.18;33.88;99571.22;5073839;28;20051;-75
2021/06/14 02:36:26;;;;;;;6.93;2.33;;;;;;;24.50;33.58;99568.81;5058004;28;20086;-75
2021/06/14 02:38:52;;;;;;;10.20;2.15;;;;;;;24.60;33.81;99574.72;5044332;28;20071;-75
2021/06/14 02:41:21;;;;;;;12.45;2.20;;;;;;;24.77;33.38;99592.41;5058556;28;20441;-76
2021/06/14 02:43:49;;;;;;;6.10;2.15;;;;;;;24.63;33.27;99585.22;5057927;28;20055;-75
2021/06/14 02:46:15;;;;;;;7.50;2.00;;;;;;;24.67;32.92;99581.00;5057850;28;20052;-74
2021/06/14 02:48:42;;;;;;;8.27;1.83;;;;;;;24.87;32.55;99579.16;5074686;28;20040;-75
2021/06/14 02:51:08;;;;;;;6.32;1.95;;;;;;;24.80;32.34;99575.56;5061858;28;20514;-75
2021/06/14 02:53:35;;;;;;;6.95;2.40;;;;;;;24.95;32.54;99587.16;5044777;28;20041;-75
2021/06/14 02:56:04;;;;;;;8.85;2.42;;;;;;;25.05;32.44;99588.59;5061487;28;20056;-75
2021/06/14 02:58:36;;;;;;;10.18;2.13;;;;;;;25.12;32.33;99589.47;5080472;28;20082;-76
2021/06/14 03:01:07;;;;;;;7.15;2.13;;;;;;;25.16;31.78;99590.75;5053745;28;20044;-77
2021/06/14 03:03:34;;;;;;;5.88;2.00;;;;;;;25.16;31.92;99598.94;5094062;28;20151;-75
2021/06/14 03:06:01;;;;;;;7.28;2.05;;;;;;;25.17;31.96;99597.91;5077654;28;20063;-82
2021/06/14 03:08:28;;;;;;;16.98;2.53;;;;;;;25.19;31.17;99596.63;5077781;28;20044;-78
2021/06/14 03:10:55;;;;;;;6.20;1.90;;;;;;;25.19;31.26;99595.78;5077457;28;20040;-75
2021/06/14 03:13:21;;;;;;;18.45;2.10;;;;;;;25.24;31.63;99601.50;5044398;28;20122;-78
2021/06/14 03:15:47;;;;;;;9.32;2.30;;;;;;;25.44;31.56;99605.03;5044645;28;20139;-76
2021/06/14 03:18:13;;;;;;;8.77;2.00;;;;;;;25.63;30.77;99603.31;5095376;28;20044;-77
2021/06/14 03:20:40;;;;;;;3.90;1.77;;;;;;;25.65;30.16;99614.03;5061127;28;20560;-78
2021/06/14 03:23:08;;;;;;;9.75;1.90;;;;;;;25.69;30.70;99612.59;5044289;28;20044;-77
2021/06/14 03:25:34;;;;;;;15.25;1.92;;;;;;;25.72;30.37;99601.16;5060678;28;20047;-75
2021/06/14 03:28:00;;;;;;;9.05;2.00;;;;;;;25.73;30.87;99613.84;5093846;28;20044;-75
2021/06/14 03:30:27;;;;;;;9.10;2.40;;;;;;;25.86;30.55;99613.81;5077431;28;20044;-77
2021/06/14 03:32:53;;;;;;;5.95;1.75;;;;;;;25.82;30.19;99609.81;5044057;28;20043;-76
2021/06/14 03:35:20;;;;;;;10.75;1.88;;;;;;;25.88;30.48;99616.34;5044256;28;20043;-74
2021/06/14 03:37:46;;;;;;;5.40;1.80;;;;;;;25.88;30.25;99603.50;5093769;28;20119;-75
2021/06/14 03:40:13;;;;;;;8.25;1.77;;;;;;;25.88;29.72;99610.88;5093315;28;20055;-75
2021/06/14 03:42:39;;;;;;;5.63;2.00;;;;;;;25.67;30.40;99615.50;5043364;28;20493;-75
2021/06/14 03:45:06;;;;;;;11.07;2.40;;;;;;;25.73;30.47;99613.84;5093547;28;20127;-74
2021/06/14 03:47:32;;;;;;;7.95;2.13;;;;;;;25.80;30.35;99622.91;5059862;28;20048;-73
2021/06/14 03:49:58;;;;;;;6.95;1.50;;;;;;;25.79;29.90;99612.97;5094605;28;20443;-74
2021/06/14 03:52:24;;;;;;;10.48;1.85;;;;;;;25.83;30.38;99618.88;5060149;28;20040;-76
2021/06/14 03:54:50;;;;;;;7.03;2.10;;;;;;;25.79;30.22;99623.94;5059856;28;20063;-75
2021/06/14 03:57:16;;;;;;;9.52;1.83;;;;;;;25.84;30.38;99626.03;5076415;28;20499;-78
2021/06/14 03:59:42;;;;;;;7.60;1.70;;;;;;;25.89;30.25;99624.34;5094606;28;20048;-75
2021/06/14 04:02:08;;;;;;;6.40;1.80;;;;;;;25.85;30.46;99622.25;5059315;28;20052;-75
2021/06/14 04:07:27;;;;;;;4.72;1.98;;;;;;;25.82;30.28;99625.41;5078601;28;20066;-76
2021/06/14 04:09:56;;;;;;;8.20;1.40;;;;;;;25.77;30.08;99626.03;5093046;28;20130;-76
2021/06/14 04:12:22;;;;;;;3.90;1.50;;;;;;;25.61;30.29;99621.88;5094331;28;20044;-75
2021/06/14 04:14:48;;;;;;;8.57;1.60;;;;;;;25.65;30.61;99623.13;5076371;28;20414;-77
2021/06/14 04:17:14;;;;;;;6.47;1.50;;;;;;;25.58;31.06;99619.56;5092983;28;20071;-76
2021/06/14 04:19:40;;;;;;;6.63;1.42;;;;;;;25.77;31.22;99620.56;5093043;28;20118;-76
2021/06/14 04:22:06;;;;;;;6.72;1.60;;;;;;;25.99;30.94;99617.56;5076063;28;20419;-75
2021/06/14 04:24:32;;;;;;;5.60;1.50;;;;;;;26.21;30.71;99627.16;5075728;28;20078;-76
2021/06/14 04:26:58;;;;;;;7.72;1.50;;;;;;;26.22;30.70;99623.38;5026402;28;20039;-76
2021/06/14 04:29:24;;;;;;;8.73;1.25;;;;;;;26.26;30.37;99621.88;5059567;28;20052;-75
2021/06/14 04:31:50;;;;;;;4.97;2.13;;;;;;;26.37;30.52;99615.72;5059266;28;20078;-76
2021/06/14 04:34:16;;;;;;;3.13;1.75;;;;;;;26.36;30.25;99607.69;5059017;28;20044;-77
2021/06/14 04:36:42;;;;;;;7.90;1.58;;;;;;;26.50;30.59;99614.81;5075607;28;20054;-77
2021/06/14 04:39:09;;;;;;;8.10;1.45;;;;;;;26.74;30.55;99615.09;5059248;28;20042;-76
2021/06/14 04:41:35;;;;;;;13.73;1.52;;;;;;;26.92;30.67;99612.44;5059370;28;20044;-76
2021/06/14 04:44:01;;;;;;;6.18;1.55;;;;;;;27.02;30.09;99609.19;5059094;28;20143;-76
2021/06/14 04:46:27;;;;;;;8.30;1.75;;;;;;;27.14;30.23;99615.66;5075061;28;20050;-77
2021/06/14 04:48:52;;;;;;;4.20;1.40;;;;;;;27.26;29.93;99613.03;5041733;28;20048;-75
2021/06/14 04:51:18;;;;;;;6.65;1.63;;;;;;;27.31;30.38;99616.78;5041427;28;20112;-76
2021/06/14 04:53:45;;;;;;;11.00;1.35;;;;;;;27.43;29.74;99614.16;5074781;28;20063;-75
2021/06/14 04:56:11;;;;;;;10.25;2.55;;;;;;;27.38;29.64;99608.47;5057878;28;20526;-76
2021/06/14 04:58:37;;;;;;;3.53;2.28;;;;;;;27.27;29.80;99610.09;5091676;28;20058;-75
2021/06/14 05:01:03;;;;;;;2.85;1.73;;;;;;;27.35;30.42;99612.53;5091493;28;20088;-77
2021/06/14 05:03:29;;;;;;;22.92;1.88;;;;;;;27.39;30.13;99601.94;5057769;28;20047;-75
2021/06/14 05:05:55;;;;;;;12.63;1.70;;;;;;;27.34;30.80;99613.59;5091247;28;20101;-77
2021/06/14 05:08:21;;;;;;;6.60;1.50;;;;;;;27.47;29.99;99609.03;5074555;28;20044;-76
2021/06/14 05:10:48;;;;;;;7.82;1.52;;;;;;;27.56;30.02;99600.28;5074910;28;20051;-76
2021/06/14 05:13:14;;;;;;;3.88;1.50;;;;;;;27.81;30.06;99605.75;5058044;28;20128;-76
2021/06/14 05:15:40;;;;;;;10.30;2.05;;;;;;;28.00;30.44;99603.00;5091707;28;20039;-80
2021/06/14 05:18:06;;;;;;;9.30;2.10;;;;;;;28.08;29.68;99594.44;5041397;28;20040;-73
2021/06/14 05:20:32;;;;;;;7.53;1.80;;;;;;;28.30;29.51;99595.63;5091395;28;20139;-76
2021/06/14 05:22:58;;;;;;;11.70;2.38;;;;;;;28.41;29.00;99599.53;5041903;28;20040;-75
2021/06/14 05:25:25;;;;;;;6.10;2.47;;;;;;;28.32;29.24;99593.50;5075008;28;20036;-74
2021/06/14 05:27:51;;;;;;;7.90;1.80;;;;;;;28.25;29.78;99603.75;5057752;28;20445;-74
2021/06/14 05:30:18;;;;;;;5.72;1.50;;;;;;;28.26;29.15;99601.81;5074509;28;20046;-76
2021/06/14 05:32:44;;;;;;;12.00;1.60;;;;;;;28.35;29.42;99605.91;5074568;28;20040;-75
2021/06/14 05:35:11;;;;;;;10.95;1.73;;;;;;;28.55;29.44;99595.53;5092786;28;20048;-78
2021/06/14 05:37:37;;;;;;;5.40;1.58;;;;;;;28.72;29.96;99605.84;5075157;28;20035;-80
2021/06/14 05:40:05;;;;;;;9.35;1.70;;;;;;;28.79;28.67;99603.84;5074915;28;20040;-75
2021/06/14 05:42:33;;;;;;;4.47;1.40;;;;;;;28.92;28.47;99591.78;5058402;28;20517;-76
2021/06/14 05:44:59;;;;;;;12.95;1.45;;;;;;;29.19;28.47;99595.81;5057632;28;20036;-76
2021/06/14 05:47:25;;;;;;;2.67;1.20;;;;;;;29.45;27.49;99605.53;5074494;28;20036;-74
2021/06/14 05:49:51;;;;;;;6.88;1.50;;;;;;;29.32;27.13;99603.00;5074289;28;20075;-77
2021/06/14 05:52:17;;;;;;;6.45;1.67;;;;;;;29.39;26.65;99600.13;5074958;28;20522;-77
2021/06/14 05:54:43;;;;;;;7.45;1.58;;;;;;;29.35;27.27;99599.75;5091456;28;20079;-78
2021/06/14 05:57:09;;;;;;;5.82;1.40;;;;;;;29.13;27.37;99596.75;5074874;28;20052;-78
2021/06/14 05:59:35;;;;;;;11.77;1.67;;;;;;;29.00;27.59;99599.75;5058075;28;20380;-76
2021/06/14 06:02:03;;;;;;;7.10;1.70;;;;;;;29.16;27.58;99588.03;5091292;28;20491;-77
2021/06/14 06:04:29;;;;;;;11.63;1.58;;;;;;;29.24;27.47;99598.69;5090964;28;20079;-77
2021/06/14 06:06:55;;;;;;;8.27;1.45;;;;;;;29.49;27.14;99594.88;5057771;28;20044;-79
2021/06/14 06:09:21;;;;;;;4.47;2.00;;;;;;;29.58;27.35;99600.88;5058189;28;20044;-77
2021/06/14 06:11:47;;;;;;;4.93;1.60;;;;;;;29.45;27.47;99610.16;5092716;28;20055;-76
2021/06/14 06:14:13;;;;;;;6.75;1.88;;;;;;;29.55;28.13;99604.91;5057663;28;20082;-76
2021/06/14 06:16:39;;;;;;;3.13;1.50;;;;;;;29.62;28.19;99604.81;5057443;28;20044;-78
2021/06/14 06:19:06;;;;;;;6.00;1.60;;;;;;;29.71;28.17;99603.34;5073809;28;20135;-77
2021/06/14 06:21:33;;;;;;;3.70;1.67;;;;;;;29.61;28.47;99595.72;5091510;28;20143;-79
2021/06/14 06:23:59;;;;;;;2.90;1.67;;;;;;;29.62;28.51;99600.13;5058688;28;20406;-76
2021/06/14 06:26:25;;;;;;;4.90;1.38;;;;;;;29.80;29.05;99609.34;5077557;28;20121;-77
2021/06/14 06:28:52;;;;;;;8.20;1.95;;;;;;;29.83;29.53;99606.13;5061895;28;20043;-78
2021/06/14 06:31:18;;;;;;;16.90;1.75;;;;;;;29.77;29.44;99608.75;5077626;28;20044;-73
2021/06/14 06:33:44;;;;;;;9.63;1.45;;;;;;;30.06;29.68;99606.06;5061229;28;20097;-76
2021/06/14 06:36:11;;;;;;;6.45;1.80;;;;;;;30.47;29.44;99606.91;5061755;28;20495;-82
2021/06/14 06:38:37;;;;;;;5.20;1.75;;;;;;;30.50;29.50;99606.41;5061638;28;20131;-82
2021/06/14 06:41:04;;;;;;;8.30;1.63;;;;;;;30.52;27.75;99615.28;5094143;28;20036;-82
2021/06/14 06:43:29;;;;;;;4.18;1.25;;;;;;;30.48;27.91;99614.94;5044879;28;20040;-79
2021/06/14 06:45:55;;;;;;;3.53;1.33;;;;;;;30.33;27.17;99613.81;5094550;28;20161;-78
2021/06/14 06:48:22;;;;;;;9.65;1.40;;;;;;;30.43;27.06;99611.25;5094059;28;20065;-78
2021/06/14 06:50:47;;;;;;;9.70;1.40;;;;;;;30.26;27.15;99624.13;5095519;28;20131;-77
2021/06/14 06:53:13;;;;;;;17.05;1.60;;;;;;;30.40;27.44;99607.06;5095400;28;20395;-77
2021/06/14 06:55:39;;;;;;;9.52;1.58;;;;;;;30.86;26.90;99610.69;5080562;28;20497;-78
2021/06/14 06:58:05;;;;;;;5.35;1.30;;;;;;;31.05;26.35;99613.22;5064051;28;20040;-81
2021/06/14 07:00:31;;;;;;;5.03;1.55;;;;;;;31.04;26.55;99612.38;5063976;28;20035;-80
2021/06/14 07:02:57;;;;;;;4.55;1.50;;;;;;;31.13;26.40;99605.34;5115524;28;20051;-78
2021/06/14 07:05:25;;;;;;;5.30;1.83;;;;;;;31.23;26.74;99620.44;5095728;28;20074;-77
2021/06/14 07:07:51;;;;;;;5.53;1.33;;;;;;;31.38;26.48;99617.94;5072674;28;20039;-79
2021/06/14 07:10:17;;;;;;;6.03;1.40;;;;;;;31.27;27.05;99624.34;5116128;28;20044;-78
2021/06/14 07:12:44;;;;;;;11.30;1.73;;;;;;;31.47;26.95;99627.47;5097655;28;20039;-79
2021/06/14 07:15:11;;;;;;;3.80;1.27;;;;;;;31.62;26.46;99622.16;5097360;28;20529;-79
2021/06/14 07:17:43;;;;;;;8.47;1.80;;;;;;;31.92;26.31;99615.44;5080929;28;20046;-79
2021/06/14 07:20:10;;;;;;;8.65;1.20;;;;;;;32.00;26.61;99614.97;5098069;28;20545;-78
2021/06/14 07:22:36;;;;;;;8.55;1.27;;;;;;;32.24;26.03;99614.72;5097420;28;20054;-79
2021/06/14 07:25:04;;;;;;;9.88;1.60;;;;;;;32.28;25.97;99615.88;5115517;28;20079;-80
2021/06/14 07:27:32;;;;;;;8.32;1.60;;;;;;;32.12;26.52;99609.31;5063979;28;20054;-79
2021/06/14 07:29:58;;;;;;;4.67;1.83;;;;;;;32.10;26.78;99608.75;5096851;28;20556;-79
2021/06/14 07:32:24;;;;;;;8.13;1.33;;;;;;;32.19;26.36;99611.88;5084305;28;20075;-78
2021/06/14 07:34:50;;;;;;;7.30;1.67;;;;;;;32.47;26.92;99608.94;5097129;28;20071;-79
2021/06/14 07:37:18;;;;;;;4.65;1.35;;;;;;;32.57;26.48;99603.53;5115400;28;20089;-78
2021/06/14 07:39:45;;;;;;;6.20;2.13;;;;;;;32.36;26.12;99613.50;5097491;28;20130;-81
2021/06/14 07:42:11;;;;;;;15.45;1.67;;;;;;;32.54;26.37;99603.22;5097111;28;20043;-79
2021/06/14 07:44:37;;;;;;;14.90;1.50;;;;;;;32.72;26.10;99613.06;5115701;28;20055;-79
2021/06/14 07:47:03;;;;;;;8.02;1.42;;;;;;;32.52;26.09;99611.75;5115573;28;20039;-78
2021/06/14 08:30:20;;;;;;;4.57;1.70;;;;;;;32.54;28.51;99573.59;5126671;27;365063;-74
2021/06/14 08:32:46;;;;;;;7.30;1.50;;;;;;;32.82;27.84;99582.72;5091680;28;20140;-72
2021/06/14 08:35:14;;;;;;;13.82;1.52;;;;;;;32.82;27.48;99593.78;5095334;28;20043;-73
2021/06/14 08:37:44;;;;;;;11.95;1.83;;;;;;;33.01;27.38;99588.72;5130374;28;20047;-73
2021/06/14 08:40:11;;;;;;;4.80;1.50;;;;;;;33.58;26.43;99591.66;5095841;28;20349;-74
2021/06/14 08:42:37;;;;;;;8.98;1.92;;;;;;;34.02;25.98;99582.22;5130275;27;20047;-76
2021/06/14 08:45:04;;;;;;;6.00;1.83;;;;;;;34.04;25.78;99586.41;5111922;28;20096;-76
2021/06/14 08:47:30;;;;;;;5.53;1.67;;;;;;;33.97;25.55;99596.03;5094750;28;20486;-74
2021/06/14 08:49:57;;;;;;;7.45;1.58;;;;;;;33.95;26.18;99590.75;5130205;27;20054;-73
2021/06/14 08:52:23;;;;;;;6.97;1.60;;;;;;;34.20;26.09;99592.00;5112279;28;20055;-74
2021/06/14 08:54:51;;;;;;;8.05;1.80;;;;;;;34.20;26.37;99584.50;5078405;28;20138;-73
2021/06/14 08:57:17;;;;;;;11.27;1.92;;;;;;;34.41;26.71;99570.66;5112513;28;20078;-74
2021/06/14 08:59:43;;;;;;;7.68;1.42;;;;;;;34.64;25.80;99584.09;5112326;28;20130;-74
2021/06/14 09:02:09;;;;;;;4.72;1.60;;;;;;;34.88;25.55;99576.06;5129136;28;20046;-74
2021/06/14 09:04:35;;;;;;;5.35;1.30;;;;;;;35.09;25.40;99589.97;5130163;27;20043;-75
2021/06/14 09:07:01;;;;;;;4.72;1.40;;;;;;;35.16;25.80;99591.34;5129456;28;20042;-72
2021/06/14 09:09:29;;;;;;;9.07;1.88;;;;;;;35.42;25.74;99580.22;5128733;28;20133;-76
2021/06/14 09:11:55;;;;;;;3.05;1.50;;;;;;;35.14;24.62;99584.41;5078431;28;20167;-77
2021/06/14 09:14:23;;;;;;;6.75;1.83;;;;;;;34.67;25.33;99585.47;5128924;28;20588;-74
2021/06/14 09:16:51;;;;;;;10.57;1.95;;;;;;;35.06;25.59;99576.66;5128654;28;20047;-75
2021/06/14 09:19:41;;;;;;;4.73;1.40;;;;;;;35.22;24.77;99573.56;5095560;28;20112;-80
2021/06/14 09:22:20;;;;;;;8.68;1.50;;;;;;;34.58;25.93;99571.31;5095430;28;20070;-76
2021/06/14 09:25:06;;;;;;;9.82;1.65;;;;;;;34.00;26.47;99576.09;5128419;28;20062;-77
2021/06/14 09:27:36;;;;;;;10.95;1.90;;;;;;;33.95;26.44;99574.09;5113176;28;20096;-78
2021/06/14 09:30:21;;;;;;;5.90;1.42;;;;;;;33.90;26.89;99565.78;5094959;28;20043;-75
2021/06/14 09:33:00;;;;;;;7.65;1.80;;;;;;;33.72;26.82;99564.28;5118127;28;20043;-74
2021/06/14 09:35:29;;;;;;;8.75;1.67;;;;;;;33.75;26.82;99557.38;5075489;28;20048;-77
2021/06/14 09:38:05;;;;;;;6.82;1.52;;;;;;;33.45;27.32;99558.84;5108491;28;20055;-77
2021/06/14 09:40:52;;;;;;;10.68;1.50;;;;;;;33.50;27.16;99566.38;5066638;28;20097;-76
2021/06/14 09:43:37;;;;;;;4.32;1.33;;;;;;;33.38;27.03;99569.34;5062245;28;20039;-76
2021/06/14 09:46:36;;;;;;;4.68;1.63;;;;;;;33.65;27.47;99560.94;5044532;28;20047;-76
2021/06/14 09:49:05;;;;;;;4.07;1.45;;;;;;;34.00;27.16;99560.31;5055409;28;20067;-76
2021/06/14 09:51:34;;;;;;;9.40;1.60;;;;;;;34.18;25.95;99549.81;5077595;28;20481;-76
2021/06/14 09:54:00;;;;;;;10.45;1.98;;;;;;;34.36;26.52;99554.03;5077620;28;20567;-76
2021/06/14 09:56:27;;;;;;;8.23;1.73;;;;;;;34.77;25.90;99555.78;5060648;28;20050;-76
2021/06/14 09:58:55;;;;;;;8.25;1.80;;;;;;;34.93;25.71;99545.50;5061287;28;20036;-74
2021/06/14 10:01:26;;;;;;;8.95;1.90;;;;;;;35.18;25.37;99553.00;5094366;28;20036;-75
2021/06/14 10:03:53;;;;;;;10.48;1.88;;;;;;;35.50;25.54;99544.34;5061187;28;20050;-75
2021/06/14 10:06:33;;;;;;;4.35;1.80;;;;;;;35.73;25.05;99539.28;5060705;28;20040;-75
2021/06/14 10:08:59;;;;;;;10.90;1.67;;;;;;;35.93;24.76;99547.53;5077071;28;20044;-76
2021/06/14 10:11:31;;;;;;;5.32;1.80;;;;;;;36.70;24.52;99536.00;5095076;28;20457;-74
2021/06/14 10:14:05;;;;;;;9.50;1.60;;;;;;;37.08;22.97;99533.47;5060198;28;20046;-75
2021/06/14 10:16:33;;;;;;;7.85;1.70;;;;;;;36.74;23.43;99537.06;5077065;28;20035;-75
2021/06/14 10:18:59;;;;;;;12.23;2.55;;;;;;;35.89;24.13;99538.13;5077160;28;20036;-75
2021/06/14 10:21:29;;;;;;;7.40;1.50;;;;;;;35.38;24.27;99534.63;5060160;28;20040;-75
2021/06/14 10:23:57;;;;;;;8.27;1.55;;;;;;;35.18;24.52;99535.50;5077278;28;20097;-76
2021/06/14 10:26:24;;;;;;;6.15;1.60;;;;;;;35.60;24.86;99543.50;5093374;28;20040;-76
2021/06/14 10:28:50;;;;;;;8.73;2.00;;;;;;;36.14;24.21;99541.91;5043342;28;20060;-82
2021/06/14 10:31:16;;;;;;;8.60;1.88;;;;;;;36.81;24.04;99545.94;5063238;28;20043;-78
2021/06/14 10:33:42;;;;;;;6.43;1.75;;;;;;;37.79;23.07;99538.28;5046485;28;20043;-77
2021/06/14 10:36:08;;;;;;;8.32;1.80;;;;;;;38.04;22.14;99533.56;5079929;28;20040;-77
2021/06/14 10:38:38;;;;;;;4.43;1.50;;;;;;;38.25;21.94;99534.91;5096900;28;20081;-78
2021/06/14 10:41:05;;;;;;;8.68;1.80;;;;;;;38.09;21.66;99536.25;5063467;28;20039;-74
2021/06/14 10:43:30;;;;;;;8.60;2.00;;;;;;;38.29;22.27;99543.50;5079827;28;20062;-76
2021/06/14 10:45:57;;;;;;;10.95;2.00;;;;;;;38.65;22.20;99548.59;5079618;28;20043;-76
2021/06/14 10:48:27;;;;;;;5.47;1.85;;;;;;;38.35;21.40;99534.78;5079673;28;20063;-78
2021/06/14 10:50:54;;;;;;;5.57;1.50;;;;;;;37.99;22.29;99528.88;5063826;28;20039;-78
2021/06/14 10:53:30;;;;;;;9.60;2.45;;;;;;;37.99;21.89;99537.25;5078895;28;20519;-77
2021/06/14 10:56:00;;;;;;;11.43;1.95;;;;;;;38.04;22.05;99533.56;5079560;28;20083;-76
2021/06/14 10:58:29;;;;;;;8.32;2.00;;;;;;;38.32;21.85;99529.78;5079668;28;20498;-77
2021/06/14 11:01:01;;;;;;;8.23;1.52;;;;;;;38.79;21.48;99533.59;5079785;28;20051;-77
2021/06/14 11:03:38;;;;;;;6.20;1.50;;;;;;;39.36;21.22;99529.81;5079715;28;20104;-76
2021/06/14 11:06:21;;;;;;;5.20;1.48;;;;;;;39.88;21.19;99531.28;5078915;28;20444;-77
2021/06/14 11:09:12;;;;;;;6.88;1.85;;;;;;;40.08;20.55;99530.00;5097243;28;20051;-77
2021/06/14 11:11:51;;;;;;;8.80;2.13;;;;;;;40.66;20.10;99526.47;5096268;28;20044;-78
2021/06/14 11:14:41;;;;;;;5.90;1.50;;;;;;;41.31;19.65;99521.47;5079220;28;20040;-76
2021/06/14 11:17:25;;;;;;;6.45;1.40;;;;;;;41.40;19.34;99522.31;5080103;28;20051;-76
2021/06/14 11:20:03;;;;;;;10.32;2.05;;;;;;;41.25;19.29;99524.38;5062737;28;20066;-76
2021/06/14 11:22:48;;;;;;;7.30;1.90;;;;;;;41.54;19.81;99520.28;5047804;28;20084;-76
2021/06/14 11:25:25;;;;;;;12.15;1.70;;;;;;;41.97;19.36;99528.81;5062475;28;20092;-77
2021/06/14 11:27:51;;;;;;;5.45;1.90;;;;;;;42.35;19.21;99527.41;5062249;28;20051;-76
2021/06/14 11:30:27;;;;;;;7.15;2.08;;;;;;;42.56;18.86;99522.81;5062572;28;20059;-77
2021/06/14 11:32:53;;;;;;;10.73;2.05;;;;;;;42.92;18.49;99521.66;5047133;28;20047;-77
2021/06/14 11:35:19;;;;;;;3.00;1.55;;;;;;;42.99;18.44;99518.28;5062295;28;20112;-77
2021/06/14 11:37:49;;;;;;;6.68;1.73;;;;;;;43.04;18.11;99520.94;5095489;28;20405;-79
2021/06/14 11:40:17;;;;;;;6.97;1.63;;;;;;;42.51;18.31;99506.13;5095380;28;20050;-77
2021/06/14 11:42:47;;;;;;;7.65;1.50;;;;;;;41.40;18.82;99494.25;5063100;28;20504;-76
2021/06/14 11:45:43;;;;;;;8.93;1.65;;;;;;;40.88;19.29;99503.19;5061815;28;20046;-75
2021/06/14 11:48:24;;;;;;;8.30;1.70;;;;;;;40.97;19.22;99498.50;5077076;28;20410;-77
2021/06/14 11:51:08;;;;;;;6.68;1.60;;;;;;;41.84;18.88;99490.50;5062141;28;20520;-76
2021/06/14 11:54:01;;;;;;;7.18;1.75;;;;;;;42.68;18.39;99500.50;5046720;28;20055;-75
2021/06/14 11:56:38;;;;;;;4.95;1.60;;;;;;;43.08;17.47;99500.28;5057402;28;20104;-76
2021/06/14 11:59:05;;;;;;;6.65;1.67;;;;;;;43.25;17.39;99493.75;5048143;28;20492;-76
2021/06/14 12:01:33;;;;;;;;;;;;;;;43.59;17.17;99489.97;5079214;28;20047;-77
2021/06/14 12:04:05;;;;;;;10.45;1.60;;;;;;;44.03;16.72;99496.19;5095183;28;19926;-77
2021/06/14 12:06:45;;;;;;;5.38;1.40;;;;;;;43.98;16.93;99490.78;5045823;28;20044;-75
2021/06/14 12:09:15;;;;;;;10.15;1.63;;;;;;;44.08;16.87;99479.09;5061524;28;20058;-76
2021/06/14 12:11:42;;;;;;;10.82;1.70;;;;;;;44.17;16.64;99489.50;5044542;28;20039;-76
2021/06/14 12:14:17;;;;;;;5.80;1.80;;;;;;;44.59;16.95;99498.75;5061527;28;20045;-76
2021/06/14 12:16:46;;;;;;;8.52;1.88;;;;;;;44.17;16.98;99478.22;5078290;28;20134;-77
2021/06/14 12:19:12;;;;;;;4.07;1.75;;;;;;;44.42;17.01;99480.00;5061939;28;20104;-77
2021/06/14 12:21:38;;;;;;;6.68;1.40;;;;;;;44.33;16.28;99476.44;5061681;28;20122;-77
2021/06/14 12:24:17;;;;;;;4.38;1.40;;;;;;;44.80;15.93;99467.75;5094765;28;20611;-76